createdAt,value
2023-05-25T00:00:12.740Z,14.80
2023-05-25T00:00:36.140Z,14.80
2023-05-25T00:01:02.948Z,14.80
2023-05-25T00:01:26.536Z,14.80
2023-05-25T00:01:49.717Z,14.80
2023-05-25T00:02:15.686Z,14.80
2023-05-25T00:02:39.818Z,14.80
2023-05-25T00:03:04.041Z,14.80
2023-05-25T00:03:28.194Z,14.80
2023-05-25T00:03:53.016Z,14.80
2023-05-25T00:04:17.661Z,14.80
2023-05-25T00:04:42.578Z,14.80
2023-05-25T00:05:08.045Z,14.80
2023-05-25T00:05:31.417Z,14.80
2023-05-25T00:05:54.309Z,14.80
2023-05-25T00:06:18.397Z,14.80
2023-05-25T00:06:42.277Z,14.80
2023-05-25T00:07:05.494Z,14.80
2023-05-25T00:07:28.293Z,14.80
2023-05-25T00:07:54.232Z,14.80
2023-05-25T00:08:17.558Z,14.80
2023-05-25T00:08:40.864Z,14.80
2023-05-25T00:09:03.756Z,14.80
2023-05-25T00:09:26.610Z,14.80
2023-05-25T00:09:50.601Z,14.80
2023-05-25T00:10:13.809Z,14.80
2023-05-25T00:10:39.230Z,14.80
2023-05-25T00:11:02.070Z,14.80
2023-05-25T00:11:25.006Z,14.80
2023-05-25T00:11:47.767Z,14.80
2023-05-25T00:12:11.422Z,14.80
2023-05-25T00:12:34.395Z,14.70
2023-05-25T00:12:57.412Z,14.70
2023-05-25T00:13:20.244Z,14.70
2023-05-25T00:13:43.056Z,14.80
2023-05-25T00:14:06.679Z,14.80
2023-05-25T00:14:31.290Z,14.70
2023-05-25T00:14:54.086Z,14.70
2023-05-25T00:15:17.023Z,14.70
2023-05-25T00:15:39.787Z,14.70
2023-05-25T00:16:02.790Z,14.70
2023-05-25T00:16:25.961Z,14.70
2023-05-25T00:16:51.473Z,14.70
2023-05-25T00:17:14.687Z,14.60
2023-05-25T00:17:37.655Z,14.70
2023-05-25T00:18:01.281Z,14.70
2023-05-25T00:18:25.190Z,14.70
2023-05-25T00:18:48.884Z,14.70
2023-05-25T00:19:11.686Z,14.60
2023-05-25T00:19:34.503Z,14.60
2023-05-25T00:19:58.904Z,14.70
2023-05-25T00:20:21.897Z,14.60
2023-05-25T00:20:44.772Z,14.60
2023-05-25T00:21:07.902Z,14.70
2023-05-25T00:21:31.038Z,14.60
2023-05-25T00:21:54.784Z,14.60
2023-05-25T00:22:17.864Z,14.60
2023-05-25T00:22:45.070Z,14.60
2023-05-25T00:23:07.966Z,14.60
2023-05-25T00:23:30.726Z,14.60
2023-05-25T00:23:56.023Z,14.60
2023-05-25T00:24:18.805Z,14.60
2023-05-25T00:24:41.758Z,14.60
2023-05-25T00:25:05.387Z,14.60
2023-05-25T00:25:28.241Z,14.50
2023-05-25T00:25:51.008Z,14.50
2023-05-25T00:26:16.058Z,14.50
2023-05-25T00:26:39.888Z,14.50
2023-05-25T00:27:05.130Z,14.50
2023-05-25T00:27:28.220Z,14.50
2023-05-25T00:27:53.181Z,14.50
2023-05-25T00:28:16.216Z,14.60
2023-05-25T00:28:39.023Z,14.50
2023-05-25T00:29:01.859Z,14.50
2023-05-25T00:29:26.154Z,14.50
2023-05-25T00:29:49.036Z,14.60
2023-05-25T00:30:12.841Z,14.60
2023-05-25T00:30:35.748Z,14.60
2023-05-25T00:30:58.519Z,14.60
2023-05-25T00:31:21.918Z,14.60
2023-05-25T00:31:44.783Z,14.60
2023-05-25T00:32:08.268Z,14.70
2023-05-25T00:32:31.341Z,14.60
2023-05-25T00:32:56.020Z,14.70
2023-05-25T00:33:18.838Z,14.60
2023-05-25T00:33:41.645Z,14.60
2023-05-25T00:34:04.362Z,14.60
2023-05-25T00:34:27.233Z,14.60
2023-05-25T00:34:50.037Z,14.60
2023-05-25T00:35:14.371Z,14.50
2023-05-25T00:35:37.169Z,14.60
2023-05-25T00:36:00.307Z,14.50
2023-05-25T00:36:24.206Z,14.60
2023-05-25T00:36:50.154Z,14.50
2023-05-25T00:37:12.977Z,14.50
2023-05-25T00:37:35.986Z,14.50
2023-05-25T00:37:58.876Z,14.50
2023-05-25T00:38:21.707Z,14.50
2023-05-25T00:38:44.593Z,14.50
2023-05-25T00:39:07.586Z,14.50
2023-05-25T00:39:30.442Z,14.50
2023-05-25T00:39:53.183Z,14.50
2023-05-25T00:40:19.109Z,14.50
2023-05-25T00:40:41.915Z,14.60
2023-05-25T00:41:06.159Z,14.50
2023-05-25T00:41:29.102Z,14.50
2023-05-25T00:41:51.895Z,14.50
2023-05-25T00:42:14.730Z,14.50
2023-05-25T00:42:39.354Z,14.50
2023-05-25T00:43:02.234Z,14.50
2023-05-25T00:43:27.967Z,14.60
2023-05-25T00:43:50.856Z,14.60
2023-05-25T00:44:21.585Z,14.60
2023-05-25T00:44:44.795Z,14.60
2023-05-25T00:45:09.071Z,14.60
2023-05-25T00:45:31.798Z,14.60
2023-05-25T00:45:54.715Z,14.60
2023-05-25T00:46:17.550Z,14.60
2023-05-25T00:46:42.100Z,14.60
2023-05-25T00:47:05.162Z,14.60
2023-05-25T00:47:28.490Z,14.60
2023-05-25T00:47:51.927Z,14.60
2023-05-25T00:48:14.935Z,14.60
2023-05-25T00:48:37.647Z,14.50
2023-05-25T00:49:00.606Z,14.50
2023-05-25T00:49:23.538Z,14.50
2023-05-25T00:49:46.314Z,14.50
2023-05-25T00:50:11.241Z,14.50
2023-05-25T00:50:39.006Z,14.50
2023-05-25T00:51:01.821Z,14.60
2023-05-25T00:51:24.688Z,14.50
2023-05-25T00:51:48.097Z,14.50
2023-05-25T00:52:11.412Z,14.50
2023-05-25T00:52:34.163Z,14.50
2023-05-25T00:52:57.027Z,14.50
2023-05-25T00:53:19.890Z,14.50
2023-05-25T00:53:42.701Z,14.50
2023-05-25T00:54:06.248Z,14.50
2023-05-25T00:54:29.200Z,14.50
2023-05-25T00:54:52.445Z,14.50
2023-05-25T00:55:15.356Z,14.50
2023-05-25T00:55:41.730Z,14.50
2023-05-25T00:56:08.696Z,14.60
2023-05-25T00:56:32.424Z,14.50
2023-05-25T00:56:57.632Z,14.50
2023-05-25T00:57:22.449Z,14.50
2023-05-25T00:57:46.220Z,14.50
2023-05-25T00:58:09.190Z,14.50
2023-05-25T00:58:33.538Z,14.50
2023-05-25T00:58:57.211Z,14.50
2023-05-25T00:59:24.425Z,14.50
2023-05-25T00:59:49.276Z,14.50
2023-05-25T01:00:12.955Z,14.50
2023-05-25T01:00:38.944Z,14.60
2023-05-25T01:01:01.996Z,14.50
2023-05-25T01:01:24.765Z,14.50
2023-05-25T01:01:47.716Z,14.50
2023-05-25T01:02:11.968Z,14.60
2023-05-25T01:02:36.197Z,14.60
2023-05-25T01:03:00.200Z,14.60
2023-05-25T01:03:28.188Z,14.50
2023-05-25T01:03:55.125Z,14.50
2023-05-25T01:04:18.125Z,14.50
2023-05-25T01:04:45.619Z,14.50
2023-05-25T01:05:09.998Z,14.60
2023-05-25T01:05:35.083Z,14.60
2023-05-25T01:05:59.327Z,14.60
2023-05-25T01:06:22.944Z,14.50
2023-05-25T01:06:48.345Z,14.50
2023-05-25T01:07:13.050Z,14.50
2023-05-25T01:07:38.476Z,14.50
2023-05-25T01:08:02.171Z,14.50
2023-05-25T01:08:25.572Z,14.40
2023-05-25T01:08:52.081Z,14.40
2023-05-25T01:09:16.535Z,14.40
2023-05-25T01:09:40.070Z,14.40
2023-05-25T01:10:05.326Z,14.40
2023-05-25T01:10:28.182Z,14.40
2023-05-25T01:10:51.918Z,14.40
2023-05-25T01:11:14.768Z,14.40
2023-05-25T01:11:40.208Z,14.40
2023-05-25T01:12:03.195Z,14.50
2023-05-25T01:12:27.580Z,14.50
2023-05-25T01:12:50.742Z,14.50
2023-05-25T01:13:13.554Z,14.50
2023-05-25T01:13:38.467Z,14.50
2023-05-25T01:14:01.497Z,14.50
2023-05-25T01:14:25.291Z,14.50
2023-05-25T01:14:48.897Z,14.50
2023-05-25T01:15:11.917Z,14.50
2023-05-25T01:15:34.637Z,14.50
2023-05-25T01:15:57.524Z,14.50
2023-05-25T01:16:21.163Z,14.50
2023-05-25T01:16:44.290Z,14.60
2023-05-25T01:17:07.987Z,14.60
2023-05-25T01:17:30.898Z,14.60
2023-05-25T01:17:54.362Z,14.60
2023-05-25T01:18:18.134Z,14.50
2023-05-25T01:18:42.158Z,14.60
2023-05-25T01:19:05.044Z,14.60
2023-05-25T01:19:28.630Z,14.50
2023-05-25T01:20:08.871Z,14.60
2023-05-25T01:20:33.408Z,14.60
2023-05-25T01:21:02.323Z,14.50
2023-05-25T01:21:29.218Z,14.60
2023-05-25T01:21:54.936Z,14.50
2023-05-25T01:22:24.673Z,14.50
2023-05-25T01:22:50.471Z,14.50
2023-05-25T01:23:17.714Z,14.60
2023-05-25T01:23:43.448Z,14.60
2023-05-25T01:24:08.937Z,14.60
2023-05-25T01:24:34.729Z,14.60
2023-05-25T01:25:02.605Z,14.70
2023-05-25T01:25:27.880Z,14.70
2023-05-25T01:25:52.360Z,14.70
2023-05-25T01:26:16.926Z,14.70
2023-05-25T01:26:44.542Z,14.70
2023-05-25T01:27:13.040Z,14.60
2023-05-25T01:27:39.685Z,14.60
2023-05-25T01:28:05.789Z,14.70
2023-05-25T01:28:31.106Z,14.60
2023-05-25T01:28:54.114Z,14.70
2023-05-25T01:29:16.908Z,14.70
2023-05-25T01:29:40.608Z,14.70
2023-05-25T01:30:03.679Z,14.60
2023-05-25T01:30:27.419Z,14.60
2023-05-25T01:30:50.475Z,14.60
2023-05-25T01:31:13.813Z,14.60
2023-05-25T01:31:36.886Z,14.60
2023-05-25T01:31:59.941Z,15.50
2023-05-25T01:32:22.815Z,14.60
2023-05-25T01:32:46.053Z,14.60
2023-05-25T01:33:11.530Z,14.50
2023-05-25T01:33:34.309Z,14.50
2023-05-25T01:33:57.179Z,14.60
2023-05-25T01:34:20.364Z,14.50
2023-05-25T01:34:43.882Z,14.50
2023-05-25T01:35:07.175Z,14.50
2023-05-25T01:35:29.985Z,14.50
2023-05-25T01:35:52.749Z,14.50
2023-05-25T01:36:17.202Z,14.50
2023-05-25T01:36:40.004Z,14.50
2023-05-25T01:37:02.893Z,14.50
2023-05-25T01:37:26.627Z,14.40
2023-05-25T01:37:49.659Z,14.40
2023-05-25T01:38:12.585Z,14.40
2023-05-25T01:38:36.076Z,14.40
2023-05-25T01:39:01.466Z,14.40
2023-05-25T01:39:24.277Z,14.40
2023-05-25T01:39:47.086Z,14.40
2023-05-25T01:40:11.620Z,14.50
2023-05-25T01:40:34.458Z,14.50
2023-05-25T01:40:57.244Z,14.40
2023-05-25T01:41:20.069Z,14.50
2023-05-25T01:41:43.042Z,14.50
2023-05-25T01:42:06.714Z,14.50
2023-05-25T01:42:29.543Z,14.50
2023-05-25T01:42:52.390Z,14.40
2023-05-25T01:43:15.334Z,14.50
2023-05-25T01:43:39.117Z,14.40
2023-05-25T01:44:01.962Z,14.50
2023-05-25T01:44:24.724Z,14.40
2023-05-25T01:44:47.547Z,14.50
2023-05-25T01:45:11.282Z,14.40
2023-05-25T01:45:34.646Z,14.40
2023-05-25T01:46:06.949Z,14.40
2023-05-25T01:46:32.495Z,14.40
2023-05-25T01:46:59.280Z,14.40
2023-05-25T01:47:23.973Z,14.50
2023-05-25T01:47:50.598Z,14.40
2023-05-25T01:48:17.403Z,14.40
2023-05-25T01:48:45.715Z,14.50
2023-05-25T01:49:17.038Z,14.40
2023-05-25T01:49:44.396Z,14.40
2023-05-25T01:50:10.881Z,14.50
2023-05-25T01:50:37.578Z,14.40
2023-05-25T01:51:02.887Z,14.50
2023-05-25T01:51:33.347Z,14.40
2023-05-25T01:52:00.527Z,14.40
2023-05-25T01:52:23.955Z,14.40
2023-05-25T01:52:49.027Z,14.40
2023-05-25T01:53:15.222Z,14.50
2023-05-25T01:53:42.591Z,14.50
2023-05-25T01:54:08.406Z,14.50
2023-05-25T01:54:35.245Z,14.50
2023-05-25T01:55:01.184Z,14.50
2023-05-25T01:55:26.077Z,14.40
2023-05-25T01:55:53.979Z,14.50
2023-05-25T01:56:16.766Z,14.40
2023-05-25T01:56:39.681Z,14.40
2023-05-25T01:57:02.699Z,14.40
2023-05-25T01:57:25.470Z,14.40
2023-05-25T01:57:50.829Z,14.40
2023-05-25T01:58:14.303Z,14.40
2023-05-25T01:58:40.193Z,14.40
2023-05-25T01:59:03.313Z,14.40
2023-05-25T01:59:26.061Z,14.30
2023-05-25T01:59:49.097Z,14.40
2023-05-25T02:00:12.993Z,14.30
2023-05-25T02:00:36.047Z,14.40
2023-05-25T02:00:58.925Z,14.30
2023-05-25T02:01:21.801Z,14.40
2023-05-25T02:01:44.636Z,14.30
2023-05-25T02:02:07.542Z,14.30
2023-05-25T02:02:32.868Z,14.20
2023-05-25T02:02:55.903Z,14.30
2023-05-25T02:03:18.896Z,14.30
2023-05-25T02:03:41.893Z,14.20
2023-05-25T02:04:04.855Z,14.20
2023-05-25T02:04:27.721Z,14.20
2023-05-25T02:04:51.160Z,14.20
2023-05-25T02:05:14.159Z,14.20
2023-05-25T02:05:36.902Z,14.20
2023-05-25T02:05:59.818Z,14.20
2023-05-25T02:06:22.742Z,14.10
2023-05-25T02:06:51.703Z,14.10
2023-05-25T02:07:14.545Z,14.10
2023-05-25T02:07:37.393Z,14.10
2023-05-25T02:08:00.210Z,14.10
2023-05-25T02:08:22.966Z,14.10
2023-05-25T02:08:46.860Z,14.10
2023-05-25T02:09:10.032Z,14.00
2023-05-25T02:09:32.830Z,14.10
2023-05-25T02:09:55.647Z,14.00
2023-05-25T02:10:19.438Z,14.00
2023-05-25T02:10:42.173Z,14.00
2023-05-25T02:11:04.994Z,14.00
2023-05-25T02:11:28.977Z,14.10
2023-05-25T02:11:51.829Z,14.00
2023-05-25T02:12:14.647Z,14.00
2023-05-25T02:12:37.443Z,14.00
2023-05-25T02:13:00.372Z,14.00
2023-05-25T02:13:23.277Z,14.00
2023-05-25T02:13:46.150Z,14.00
2023-05-25T02:14:09.505Z,14.00
2023-05-25T02:14:32.393Z,14.00
2023-05-25T02:14:55.236Z,14.00
2023-05-25T02:15:18.753Z,14.00
2023-05-25T02:15:41.881Z,14.00
2023-05-25T02:16:05.529Z,14.00
2023-05-25T02:16:30.193Z,14.00
2023-05-25T02:16:53.431Z,14.00
2023-05-25T02:17:18.703Z,14.00
2023-05-25T02:17:41.610Z,14.00
2023-05-25T02:18:05.991Z,14.00
2023-05-25T02:18:29.342Z,14.00
2023-05-25T02:18:52.126Z,14.00
2023-05-25T02:19:15.282Z,14.00
2023-05-25T02:19:38.197Z,14.00
2023-05-25T02:20:02.065Z,14.00
2023-05-25T02:20:25.041Z,14.00
2023-05-25T02:20:48.243Z,14.00
2023-05-25T02:21:11.403Z,14.00
2023-05-25T02:21:36.549Z,13.90
2023-05-25T02:22:00.917Z,13.90
2023-05-25T02:22:24.087Z,13.90
2023-05-25T02:22:49.330Z,13.90
2023-05-25T02:23:12.220Z,13.90
2023-05-25T02:23:34.998Z,13.90
2023-05-25T02:24:00.230Z,13.90
2023-05-25T02:24:24.760Z,13.90
2023-05-25T02:24:48.292Z,13.90
2023-05-25T02:25:11.210Z,13.90
2023-05-25T02:25:34.292Z,13.90
2023-05-25T02:25:57.165Z,13.90
2023-05-25T02:26:19.985Z,13.90
2023-05-25T02:26:42.815Z,13.90
2023-05-25T02:27:06.399Z,13.90
2023-05-25T02:27:29.345Z,13.90
2023-05-25T02:27:52.207Z,13.90
2023-05-25T02:28:15.296Z,13.90
2023-05-25T02:28:38.086Z,13.90
2023-05-25T02:29:02.412Z,13.80
2023-05-25T02:29:26.549Z,13.80
2023-05-25T02:29:49.580Z,13.80
2023-05-25T02:30:12.971Z,13.80
2023-05-25T02:30:35.735Z,13.80
2023-05-25T02:30:58.582Z,13.80
2023-05-25T02:31:21.637Z,13.80
2023-05-25T02:31:44.649Z,13.80
2023-05-25T02:32:07.578Z,13.80
2023-05-25T02:32:31.651Z,13.70
2023-05-25T02:32:54.729Z,13.70
2023-05-25T02:33:18.994Z,13.70
2023-05-25T02:33:41.805Z,13.70
2023-05-25T02:34:04.539Z,13.70
2023-05-25T02:34:27.424Z,13.70
2023-05-25T02:34:50.278Z,13.70
2023-05-25T02:35:13.180Z,13.70
2023-05-25T02:35:38.839Z,13.70
2023-05-25T02:36:01.586Z,13.70
2023-05-25T02:36:24.508Z,13.70
2023-05-25T02:36:47.447Z,13.70
2023-05-25T02:37:11.892Z,13.70
2023-05-25T02:37:34.662Z,13.70
2023-05-25T02:37:57.435Z,13.70
2023-05-25T02:38:20.307Z,13.70
2023-05-25T02:38:43.157Z,13.70
2023-05-25T02:39:05.972Z,13.70
2023-05-25T02:39:28.880Z,13.70
2023-05-25T02:39:51.750Z,13.70
2023-05-25T02:40:14.961Z,13.70
2023-05-25T02:40:37.764Z,13.70
2023-05-25T02:41:01.052Z,13.60
2023-05-25T02:41:24.494Z,13.60
2023-05-25T02:41:47.311Z,13.60
2023-05-25T02:42:10.193Z,13.60
2023-05-25T02:42:33.034Z,13.60
2023-05-25T02:42:56.124Z,13.60
2023-05-25T02:43:18.939Z,13.50
2023-05-25T02:43:41.731Z,13.60
2023-05-25T02:44:04.697Z,13.60
2023-05-25T02:44:27.741Z,13.60
2023-05-25T02:44:50.737Z,13.50
2023-05-25T02:45:13.593Z,13.50
2023-05-25T02:45:36.444Z,13.50
2023-05-25T02:45:59.495Z,13.50
2023-05-25T02:46:23.704Z,13.50
2023-05-25T02:46:46.776Z,13.50
2023-05-25T02:47:12.275Z,13.50
2023-05-25T02:47:35.080Z,13.50
2023-05-25T02:47:57.945Z,13.50
2023-05-25T02:48:22.014Z,13.50
2023-05-25T02:48:44.774Z,13.50
2023-05-25T02:49:07.707Z,13.50
2023-05-25T02:49:30.590Z,13.50
2023-05-25T02:49:53.439Z,13.50
2023-05-25T02:50:16.355Z,13.50
2023-05-25T02:50:39.194Z,13.50
2023-05-25T02:51:03.278Z,13.50
2023-05-25T02:51:26.168Z,13.40
2023-05-25T02:51:49.031Z,13.40
2023-05-25T02:52:13.462Z,13.40
2023-05-25T02:52:36.261Z,13.40
2023-05-25T02:53:01.895Z,13.30
2023-05-25T02:53:24.697Z,13.30
2023-05-25T02:53:48.389Z,13.30
2023-05-25T02:54:11.264Z,13.30
2023-05-25T02:54:34.004Z,13.30
2023-05-25T02:54:57.236Z,13.30
2023-05-25T02:55:20.193Z,13.30
2023-05-25T02:55:43.844Z,13.30
2023-05-25T02:56:07.384Z,13.30
2023-05-25T02:56:30.251Z,13.30
2023-05-25T02:56:53.244Z,13.30
2023-05-25T02:57:16.229Z,13.30
2023-05-25T02:57:39.200Z,13.30
2023-05-25T02:58:02.145Z,13.30
2023-05-25T02:58:24.878Z,13.30
2023-05-25T02:58:48.529Z,13.30
2023-05-25T02:59:11.478Z,13.20
2023-05-25T02:59:34.282Z,13.20
2023-05-25T02:59:59.638Z,13.20
2023-05-25T03:00:22.535Z,13.20
2023-05-25T03:00:47.073Z,13.20
2023-05-25T03:01:11.116Z,13.20
2023-05-25T03:01:36.039Z,13.20
2023-05-25T03:01:59.259Z,13.10
2023-05-25T03:02:25.694Z,13.10
2023-05-25T03:02:49.172Z,13.10
2023-05-25T03:03:12.162Z,13.10
2023-05-25T03:03:35.366Z,13.10
2023-05-25T03:04:01.305Z,13.10
2023-05-25T03:04:24.298Z,13.10
2023-05-25T03:04:47.198Z,13.10
2023-05-25T03:05:10.138Z,13.10
2023-05-25T03:05:35.420Z,13.10
2023-05-25T03:05:58.300Z,13.20
2023-05-25T03:06:26.541Z,13.20
2023-05-25T03:06:49.447Z,13.20
2023-05-25T03:07:13.629Z,13.20
2023-05-25T03:07:36.530Z,13.20
2023-05-25T03:07:59.324Z,13.20
2023-05-25T03:08:22.221Z,13.20
2023-05-25T03:08:45.008Z,13.20
2023-05-25T03:09:09.019Z,13.10
2023-05-25T03:09:31.810Z,13.10
2023-05-25T03:09:54.838Z,13.10
2023-05-25T03:10:17.811Z,13.10
2023-05-25T03:10:40.762Z,13.10
2023-05-25T03:11:03.489Z,13.10
2023-05-25T03:11:26.975Z,13.10
2023-05-25T03:11:49.867Z,13.20
2023-05-25T03:12:12.718Z,13.10
2023-05-25T03:12:35.486Z,13.10
2023-05-25T03:12:58.327Z,13.10
2023-05-25T03:13:21.292Z,13.20
2023-05-25T03:13:44.135Z,13.10
2023-05-25T03:14:06.932Z,13.60
2023-05-25T03:14:32.300Z,13.10
2023-05-25T03:14:55.099Z,13.10
2023-05-25T03:15:18.004Z,13.10
2023-05-25T03:15:40.889Z,13.10
2023-05-25T03:16:03.750Z,13.10
2023-05-25T03:16:26.860Z,13.10
2023-05-25T03:16:53.606Z,13.10
2023-05-25T03:17:17.107Z,13.10
2023-05-25T03:17:40.117Z,13.10
2023-05-25T03:18:03.350Z,13.10
2023-05-25T03:18:26.446Z,13.10
2023-05-25T03:18:49.421Z,13.20
2023-05-25T03:19:12.572Z,13.10
2023-05-25T03:19:35.323Z,13.20
2023-05-25T03:19:58.212Z,13.20
2023-05-25T03:20:24.811Z,13.20
2023-05-25T03:20:48.293Z,13.20
2023-05-25T03:21:11.606Z,13.20
2023-05-25T03:21:34.440Z,13.10
2023-05-25T03:21:57.278Z,13.20
2023-05-25T03:22:21.508Z,13.10
2023-05-25T03:22:44.464Z,13.10
2023-05-25T03:23:07.344Z,13.00
2023-05-25T03:23:30.194Z,13.10
2023-05-25T03:23:53.020Z,13.10
2023-05-25T03:24:15.849Z,13.10
2023-05-25T03:24:42.436Z,13.10
2023-05-25T03:25:06.674Z,13.10
2023-05-25T03:25:29.563Z,13.10
2023-05-25T03:25:52.408Z,13.20
2023-05-25T03:26:15.909Z,13.10
2023-05-25T03:26:38.999Z,13.10
2023-05-25T03:27:02.207Z,13.20
2023-05-25T03:27:24.995Z,13.20
2023-05-25T03:27:47.892Z,13.10
2023-05-25T03:28:11.148Z,13.20
2023-05-25T03:28:33.976Z,13.20
2023-05-25T03:28:56.860Z,13.10
2023-05-25T03:29:19.672Z,13.20
2023-05-25T03:29:42.614Z,13.20
2023-05-25T03:30:07.232Z,13.20
2023-05-25T03:30:30.691Z,13.20
2023-05-25T03:30:53.447Z,13.20
2023-05-25T03:31:16.454Z,13.20
2023-05-25T03:31:39.521Z,13.20
2023-05-25T03:32:02.497Z,13.20
2023-05-25T03:32:25.514Z,13.20
2023-05-25T03:32:48.653Z,13.20
2023-05-25T03:33:13.986Z,13.20
2023-05-25T03:33:36.738Z,13.20
2023-05-25T03:33:59.647Z,13.30
2023-05-25T03:34:24.829Z,13.20
2023-05-25T03:34:47.660Z,13.20
2023-05-25T03:35:10.649Z,13.30
2023-05-25T03:35:33.468Z,13.20
2023-05-25T03:35:56.339Z,13.30
2023-05-25T03:36:19.311Z,13.20
2023-05-25T03:36:46.083Z,13.30
2023-05-25T03:37:09.044Z,13.30
2023-05-25T03:37:33.289Z,13.30
2023-05-25T03:37:56.074Z,13.30
2023-05-25T03:38:18.924Z,13.30
2023-05-25T03:38:43.740Z,13.30
2023-05-25T03:39:07.318Z,13.30
2023-05-25T03:39:30.175Z,13.30
2023-05-25T03:39:53.101Z,13.30
2023-05-25T03:40:15.921Z,13.30
2023-05-25T03:40:38.767Z,13.30
2023-05-25T03:41:01.637Z,13.30
2023-05-25T03:41:24.925Z,13.20
2023-05-25T03:41:48.538Z,13.20
2023-05-25T03:42:11.380Z,13.20
2023-05-25T03:42:34.292Z,13.20
2023-05-25T03:42:57.133Z,13.20
2023-05-25T03:43:19.982Z,13.20
2023-05-25T03:43:42.764Z,13.20
2023-05-25T03:44:05.969Z,13.20
2023-05-25T03:44:28.800Z,13.10
2023-05-25T03:44:51.690Z,13.10
2023-05-25T03:45:14.973Z,13.10
2023-05-25T03:45:37.984Z,13.10
2023-05-25T03:46:00.917Z,13.10
2023-05-25T03:46:23.870Z,13.10
2023-05-25T03:46:46.814Z,13.10
2023-05-25T03:47:09.715Z,13.10
2023-05-25T03:47:32.611Z,13.10
2023-05-25T03:47:56.717Z,13.10
2023-05-25T03:48:19.629Z,13.20
2023-05-25T03:48:42.565Z,13.20
2023-05-25T03:49:06.154Z,13.20
2023-05-25T03:49:29.030Z,13.20
2023-05-25T03:49:51.904Z,13.20
2023-05-25T03:50:14.783Z,13.20
2023-05-25T03:50:37.702Z,13.20
2023-05-25T03:51:00.480Z,13.20
2023-05-25T03:51:23.339Z,13.20
2023-05-25T03:51:46.274Z,13.10
2023-05-25T03:52:09.105Z,13.20
2023-05-25T03:52:33.371Z,13.10
2023-05-25T03:52:56.252Z,13.10
2023-05-25T03:53:19.092Z,13.10
2023-05-25T03:53:41.911Z,13.10
2023-05-25T03:54:04.815Z,13.10
2023-05-25T03:54:27.632Z,13.10
2023-05-25T03:54:50.464Z,13.10
2023-05-25T03:55:15.424Z,13.10
2023-05-25T03:55:38.462Z,13.10
2023-05-25T03:56:01.511Z,13.10
2023-05-25T03:56:24.499Z,13.10
2023-05-25T03:56:47.485Z,13.10
2023-05-25T03:57:10.374Z,13.10
2023-05-25T03:57:33.183Z,13.10
2023-05-25T03:57:56.048Z,13.00
2023-05-25T03:58:18.939Z,13.00
2023-05-25T03:58:41.816Z,13.00
2023-05-25T03:59:04.549Z,13.00
2023-05-25T03:59:27.329Z,13.00
2023-05-25T03:59:50.109Z,13.00
2023-05-25T04:00:14.996Z,13.00
2023-05-25T04:00:37.935Z,13.00
2023-05-25T04:01:01.412Z,12.90
2023-05-25T04:01:26.991Z,13.00
2023-05-25T04:01:49.798Z,12.90
2023-05-25T04:02:12.573Z,12.90
2023-05-25T04:02:36.828Z,13.00
2023-05-25T04:02:59.976Z,12.90
2023-05-25T04:03:23.132Z,13.00
2023-05-25T04:03:46.347Z,13.00
2023-05-25T04:04:09.679Z,12.90
2023-05-25T04:04:32.742Z,13.00
2023-05-25T04:04:57.170Z,12.90
2023-05-25T04:05:19.953Z,13.00
2023-05-25T04:05:43.252Z,13.00
2023-05-25T04:06:06.514Z,12.90
2023-05-25T04:06:30.301Z,12.90
2023-05-25T04:06:53.180Z,12.90
2023-05-25T04:07:16.065Z,12.90
2023-05-25T04:07:41.007Z,13.00
2023-05-25T04:08:04.403Z,13.10
2023-05-25T04:08:28.882Z,13.00
2023-05-25T04:08:52.496Z,13.00
2023-05-25T04:09:15.788Z,13.10
2023-05-25T04:09:38.704Z,13.10
2023-05-25T04:10:01.559Z,13.10
2023-05-25T04:10:24.326Z,13.10
2023-05-25T04:10:47.377Z,13.10
2023-05-25T04:11:10.295Z,13.10
2023-05-25T04:11:33.121Z,13.10
2023-05-25T04:11:55.981Z,13.10
2023-05-25T04:12:18.894Z,13.10
2023-05-25T04:12:41.675Z,13.10
2023-05-25T04:13:04.859Z,13.20
2023-05-25T04:13:27.672Z,13.20
2023-05-25T04:13:50.452Z,13.20
2023-05-25T04:14:14.337Z,13.20
2023-05-25T04:14:37.285Z,13.20
2023-05-25T04:15:00.106Z,13.30
2023-05-25T04:15:22.942Z,13.20
2023-05-25T04:15:45.797Z,13.20
2023-05-25T04:16:10.304Z,13.20
2023-05-25T04:16:33.268Z,13.20
2023-05-25T04:16:56.203Z,13.30
2023-05-25T04:17:22.213Z,13.30
2023-05-25T04:17:45.136Z,13.20
2023-05-25T04:18:08.236Z,13.20
2023-05-25T04:18:31.008Z,13.30
2023-05-25T04:18:53.824Z,13.30
2023-05-25T04:19:16.687Z,13.30
2023-05-25T04:19:39.479Z,13.30
2023-05-25T04:20:02.331Z,13.30
2023-05-25T04:20:25.244Z,13.30
2023-05-25T04:20:48.301Z,13.40
2023-05-25T04:21:11.254Z,13.40
2023-05-25T04:21:34.307Z,13.90
2023-05-25T04:22:00.408Z,13.40
2023-05-25T04:22:23.218Z,13.50
2023-05-25T04:22:47.944Z,13.50
2023-05-25T04:23:10.852Z,13.50
2023-05-25T04:23:36.484Z,13.50
2023-05-25T04:23:59.429Z,13.50
2023-05-25T04:24:22.610Z,13.50
2023-05-25T04:24:48.365Z,13.40
2023-05-25T04:25:11.377Z,13.50
2023-05-25T04:25:34.259Z,13.50
2023-05-25T04:25:58.013Z,13.40
2023-05-25T04:26:20.779Z,13.50
2023-05-25T04:26:44.162Z,13.50
2023-05-25T04:27:07.486Z,13.50
2023-05-25T04:27:30.275Z,13.50
2023-05-25T04:27:53.837Z,13.50
2023-05-25T04:28:16.829Z,13.50
2023-05-25T04:28:41.184Z,13.60
2023-05-25T04:29:04.007Z,13.50
2023-05-25T04:29:27.259Z,13.60
2023-05-25T04:29:50.853Z,13.60
2023-05-25T04:30:13.918Z,13.50
2023-05-25T04:30:36.741Z,13.50
2023-05-25T04:30:59.689Z,13.50
2023-05-25T04:31:22.497Z,13.50
2023-05-25T04:31:46.563Z,13.50
2023-05-25T04:32:14.705Z,13.50
2023-05-25T04:32:37.737Z,13.50
2023-05-25T04:33:03.078Z,13.50
2023-05-25T04:33:30.081Z,13.50
2023-05-25T04:33:53.280Z,13.50
2023-05-25T04:34:16.103Z,13.50
2023-05-25T04:34:38.972Z,13.50
2023-05-25T04:35:01.876Z,13.50
2023-05-25T04:35:24.722Z,13.50
2023-05-25T04:35:49.419Z,13.50
2023-05-25T04:36:14.331Z,13.50
2023-05-25T04:36:38.994Z,13.50
2023-05-25T04:37:05.874Z,13.50
2023-05-25T04:37:30.622Z,13.60
2023-05-25T04:37:54.889Z,13.60
2023-05-25T04:38:20.708Z,13.60
2023-05-25T04:38:48.178Z,13.60
2023-05-25T04:39:13.648Z,13.60
2023-05-25T04:39:36.526Z,13.60
2023-05-25T04:39:59.463Z,13.70
2023-05-25T04:40:22.412Z,13.70
2023-05-25T04:40:46.639Z,13.70
2023-05-25T04:41:09.430Z,13.70
2023-05-25T04:41:32.255Z,13.70
2023-05-25T04:41:57.741Z,13.70
2023-05-25T04:42:24.256Z,14.00
2023-05-25T04:42:48.265Z,13.70
2023-05-25T04:43:13.865Z,13.70
2023-05-25T04:43:36.682Z,13.70
2023-05-25T04:44:08.941Z,13.70
2023-05-25T04:44:33.010Z,13.70
2023-05-25T04:44:55.967Z,13.80
2023-05-25T04:45:21.710Z,13.80
2023-05-25T04:45:46.494Z,13.80
2023-05-25T04:46:09.552Z,13.80
2023-05-25T04:46:32.666Z,13.80
2023-05-25T04:46:55.696Z,13.80
2023-05-25T04:47:19.400Z,13.80
2023-05-25T04:47:45.540Z,13.90
2023-05-25T04:48:09.647Z,13.90
2023-05-25T04:48:34.377Z,13.90
2023-05-25T04:48:57.231Z,13.90
2023-05-25T04:49:20.220Z,13.90
2023-05-25T04:49:43.005Z,13.90
2023-05-25T04:50:06.894Z,13.90
2023-05-25T04:50:29.771Z,13.90
2023-05-25T04:50:53.374Z,14.00
2023-05-25T04:51:16.876Z,14.00
2023-05-25T04:51:42.213Z,14.00
2023-05-25T04:52:08.548Z,14.00
2023-05-25T04:52:32.822Z,14.00
2023-05-25T04:52:57.232Z,14.00
2023-05-25T04:53:20.586Z,14.00
2023-05-25T04:53:43.521Z,14.00
2023-05-25T04:54:07.087Z,13.90
2023-05-25T04:54:30.045Z,13.90
2023-05-25T04:54:53.771Z,13.90
2023-05-25T04:55:16.903Z,13.90
2023-05-25T04:55:40.378Z,13.90
2023-05-25T04:56:03.924Z,14.00
2023-05-25T04:56:26.999Z,14.00
2023-05-25T04:56:49.870Z,14.00
2023-05-25T04:57:12.571Z,14.10
2023-05-25T04:57:35.417Z,14.10
2023-05-25T04:57:58.980Z,14.10
2023-05-25T04:58:22.586Z,14.10
2023-05-25T04:58:45.677Z,14.10
2023-05-25T04:59:08.724Z,14.20
2023-05-25T04:59:31.486Z,14.10
2023-05-25T04:59:54.386Z,14.20
2023-05-25T05:00:19.356Z,14.20
2023-05-25T05:00:42.572Z,14.20
2023-05-25T05:01:05.714Z,14.20
2023-05-25T05:01:29.341Z,14.20
2023-05-25T05:01:52.455Z,14.20
2023-05-25T05:02:15.900Z,14.20
2023-05-25T05:02:38.926Z,14.20
2023-05-25T05:03:02.076Z,14.20
2023-05-25T05:03:25.132Z,14.20
2023-05-25T05:03:48.122Z,14.20
2023-05-25T05:04:11.087Z,14.20
2023-05-25T05:04:33.921Z,14.20
2023-05-25T05:04:57.135Z,14.20
2023-05-25T05:05:19.973Z,14.20